Aérodrome :
LOGIN :

S'inscrire | Disclaimer

   EN    FR    IT 

 










Légende :    VFR   VFR Marginal   IFR   IFR Intensif   IFR Très Intensif
Visi : 
Plafond : 
>= 8 km
>= 3000ft
5 à 8 km
1000 à 3000 ft
1500m à 5 km
500 à 1000 ft
800 à 1500m
200 à 500 ft
< 800m
< 200 ft
Symboles :   Orages  Brouillard  Fortes neiges  Fortes précipitations  Vent > 20 kt
SIGMETs :   Divers  Orages  Givrage  Turbulence  Onde Orograph.  Cendres Volcan.







- Altitude de l'aérodrome : 935 ft


EBFS - Florennes

DERNIER METAR :
  • 200125Z AUTO 27003KT 3500 BR BKN003/// OVC005/// 10/// Q1022 YLO

METARs EXPIRÉS :
  • 200055Z AUTO 28004KT 3700 BR BKN004/// BKN160/// OVC220/// 10/// Q1022 YLO
  • 200050Z AUTO 27005KT 3900 BR SCT004/// BKN070/// BKN160/// 10/// Q1022 YLO
  • 200025Z AUTO 27007KT 4700 BR BKN065/// BKN220/// 10/10 Q1022 GRN
  • 192355Z AUTO 26005KT 4900 BR FEW003/// BKN070/// 10/10 Q1022 GRN
  • 192325Z AUTO 25005KT 3400 BR OVC003/// 11/11 Q1022 YLO
  • 192255Z AUTO 28004KT 4400 BR OVC003/// 11/11 Q1022 YLO

TAF TAF EBFS
Valide du 19 à 19h jusqu'au 20 à 07h UTC


191541Z 1919/2007 30008KT 9999 SCT015 BKN180
TEMPO 2002/2006 28005KT 4000 BR SCT005 BKN010
BECMG 2004/2006 2000 BR SCT002 BKN005
Pas de NOTAMs connus pour ce terrain.



MET'MAP, la Météo Aéronautique d'un coup d'oeil ! - Copyright ORBIFLY Décembre 2007 - Disclaimer

ORBIFLY MET'MAP TEAM :

Programmation & Développement : Alexandra Zaïnal
Conception & Développement : Baudouin d'Aumeries
Co-Programmation & Développement : Marc-Olivier Méhu
Soutien technique & logistique : Manuel Goepfert

Contact : metmap@orbifly.com




SOURCES & CREDITS :

   NOAA